Time;durP1;ratioP1;P1;durP2;ratioP2;P2;SDS_P1;SDS_P2;PMS_P1;PMS_P2;Temp;Humidity;BMP_temperature;BMP_pressure;BME280_temperature;BME280_humidity;BME280_pressure;Samples;Min_cycle;Max_cycle;Signal;HPM_P1;HPM_P2
2024/01/31 00:00:09;;;;;;;9.97;2.77;;;27.10;99.90;;;;;;5034344;28;20178;-67
2024/01/31 00:02:39;;;;;;;11.10;2.60;;;27.30;99.90;;;;;;5034400;28;20186;-69
2024/01/31 00:05:07;;;;;;;11.60;2.37;;;27.40;99.90;;;;;;5034413;28;20205;-68
2024/01/31 00:07:34;;;;;;;10.33;2.77;;;28.00;99.90;;;;;;5034451;28;20665;-69
2024/01/31 00:10:03;;;;;;;9.80;2.13;;;28.70;99.90;;;;;;5033635;28;20205;-70
2024/01/31 00:12:30;;;;;;;7.27;2.30;;;29.00;99.90;;;;;;5033926;28;20184;-70
2024/01/31 00:14:58;;;;;;;8.07;2.03;;;29.30;99.90;;;;;;5034371;28;20178;-70
2024/01/31 00:17:25;;;;;;;10.20;2.40;;;29.60;99.90;;;;;;5034315;28;20177;-70
2024/01/31 00:19:52;;;;;;;7.37;2.27;;;29.50;99.90;;;;;;5034090;28;20239;-69
2024/01/31 00:22:20;;;;;;;10.67;2.00;;;29.70;99.90;;;;;;5025398;28;20610;-69
2024/01/31 00:24:47;;;;;;;6.70;2.43;;;29.30;99.90;;;;;;5043431;28;20223;-69
2024/01/31 00:33:58;;;;;;;11.67;2.57;;;28.90;99.90;;;;;;5033610;28;20552;-69
2024/01/31 00:36:25;;;;;;;7.77;2.17;;;28.60;99.90;;;;;;5034205;28;20173;-69
2024/01/31 00:38:52;;;;;;;9.00;2.70;;;28.30;99.90;;;;;;5033973;28;20174;-69
2024/01/31 00:41:20;;;;;;;8.83;2.60;;;28.30;99.90;;;;;;5033647;28;20204;-68
2024/01/31 00:43:47;;;;;;;7.00;2.37;;;28.20;99.90;;;;;;5033612;28;20181;-68
2024/01/31 00:46:14;;;;;;;13.93;2.70;;;28.00;99.90;;;;;;5033997;28;20204;-70
2024/01/31 00:48:42;;;;;;;8.10;2.20;;;28.00;99.90;;;;;;5034210;28;20170;-70
2024/01/31 00:51:11;;;;;;;6.27;1.90;;;27.90;99.90;;;;;;5032728;28;20216;-70
2024/01/31 00:53:39;;;;;;;6.93;2.60;;;27.80;99.90;;;;;;5033541;28;20550;-70
2024/01/31 00:56:08;;;;;;;9.03;2.67;;;27.90;99.90;;;;;;5015338;28;20229;-69
2024/01/31 00:58:36;;;;;;;10.77;2.40;;;27.90;99.90;;;;;;5033634;28;20282;-69
2024/01/31 01:01:03;;;;;;;8.47;2.30;;;27.80;99.90;;;;;;5033412;28;20186;-68
2024/01/31 01:03:31;;;;;;;9.63;2.70;;;27.60;99.90;;;;;;5033619;28;20177;-69
2024/01/31 01:05:58;;;;;;;7.33;2.10;;;27.50;99.90;;;;;;5033564;28;20545;-69
2024/01/31 01:08:25;;;;;;;7.93;2.97;;;27.50;99.90;;;;;;5033234;28;20260;-70
2024/01/31 01:10:55;;;;;;;8.20;2.40;;;27.50;99.90;;;;;;5032992;28;20213;-69
2024/01/31 01:13:22;;;;;;;7.23;2.37;;;27.60;99.90;;;;;;5033334;28;20620;-69
2024/01/31 01:15:50;;;;;;;11.63;2.70;;;27.70;99.90;;;;;;5032929;28;20188;-70
2024/01/31 01:18:17;;;;;;;5.00;1.87;;;27.80;99.90;;;;;;5033295;28;20239;-69
2024/01/31 01:20:45;;;;;;;17.10;3.40;;;27.90;99.90;;;;;;5014933;28;20239;-69
2024/01/31 01:23:15;;;;;;;7.90;2.30;;;27.70;99.90;;;;;;5032857;28;20256;-70
2024/01/31 01:29:26;;;;;;;5.57;2.10;;;27.60;99.90;;;;;;5033064;28;20694;-69
2024/01/31 01:31:53;;;;;;;12.13;2.53;;;27.70;99.90;;;;;;5032387;28;20190;-68
2024/01/31 01:34:20;;;;;;;6.90;2.17;;;27.70;99.90;;;;;;5037348;28;20184;-68
2024/01/31 01:36:48;;;;;;;11.30;2.87;;;27.70;99.90;;;;;;5052965;28;20638;-69
2024/01/31 01:39:15;;;;;;;9.27;2.17;;;27.70;99.90;;;;;;5040797;28;20204;-69
2024/01/31 01:41:47;;;;;;;5.20;1.73;;;27.50;99.90;;;;;;5032805;28;20201;-67
2024/01/31 01:44:14;;;;;;;7.10;2.40;;;27.40;99.90;;;;;;5033063;28;20177;-69
2024/01/31 01:46:42;;;;;;;8.67;2.00;;;27.40;99.90;;;;;;5032858;28;20173;-69
2024/01/31 01:49:14;;;;;;;7.50;2.13;;;27.30;99.90;;;;;;5032373;28;20177;-68
2024/01/31 01:51:44;;;;;;;8.10;2.27;;;27.30;99.90;;;;;;5032324;28;20683;-69
2024/01/31 01:54:13;;;;;;;9.33;2.30;;;27.30;99.90;;;;;;5014894;28;20682;-69
2024/01/31 01:56:45;;;;;;;7.20;2.03;;;27.40;99.90;;;;;;5032422;28;20617;-69
2024/01/31 01:59:14;;;;;;;7.17;2.20;;;27.40;99.90;;;;;;5032648;28;20176;-68
2024/01/31 02:01:43;;;;;;;4.83;2.17;;;27.40;99.90;;;;;;5032362;28;20556;-68
2024/01/31 02:04:11;;;;;;;7.43;2.13;;;27.40;99.90;;;;;;5031653;28;20711;-68
2024/01/31 02:06:38;;;;;;;8.43;2.10;;;27.20;99.90;;;;;;5032447;28;20177;-68
2024/01/31 02:09:06;;;;;;;8.23;2.83;;;26.80;99.90;;;;;;5032424;28;20672;-68
2024/01/31 02:11:34;;;;;;;9.57;2.50;;;26.60;99.90;;;;;;5031782;28;20224;-68
2024/01/31 02:14:02;;;;;;;6.33;2.60;;;26.40;99.90;;;;;;5032357;28;20269;-68
2024/01/31 02:16:29;;;;;;;5.57;2.03;;;26.30;99.90;;;;;;5031707;28;20189;-68
2024/01/31 02:18:56;;;;;;;6.20;1.80;;;26.30;99.90;;;;;;5032257;28;20260;-68
2024/01/31 02:21:27;;;;;;;4.63;2.07;;;26.40;99.90;;;;;;5031777;28;20188;-68
2024/01/31 02:23:54;;;;;;;5.50;2.10;;;26.50;99.90;;;;;;5032319;28;20192;-68
2024/01/31 02:26:22;;;;;;;8.90;2.07;;;26.50;99.90;;;;;;5031925;28;20181;-68
2024/01/31 02:28:49;;;;;;;5.40;2.30;;;26.50;99.90;;;;;;5032254;28;20184;-68
2024/01/31 02:31:16;;;;;;;7.90;2.50;;;26.90;99.90;;;;;;5031030;28;20228;-68
2024/01/31 02:33:44;;;;;;;7.27;1.90;;;27.50;99.90;;;;;;5031951;28;20177;-68
2024/01/31 02:36:11;;;;;;;5.60;2.03;;;27.80;99.90;;;;;;5032069;28;20177;-68
2024/01/31 02:45:22;;;;;;;9.70;2.33;;;28.10;99.90;;;;;;5012974;28;20559;-69
2024/01/31 02:47:50;;;;;;;5.20;2.10;;;28.30;99.90;;;;;;5032832;28;20181;-69
2024/01/31 02:50:17;;;;;;;3.67;1.80;;;28.40;99.90;;;;;;5032403;28;20197;-68
2024/01/31 02:52:45;;;;;;;9.53;2.30;;;28.30;99.90;;;;;;5032973;28;20656;-68
2024/01/31 02:55:12;;;;;;;9.60;2.30;;;28.30;99.90;;;;;;5032594;28;20691;-69
2024/01/31 02:57:40;;;;;;;6.47;1.87;;;28.40;99.90;;;;;;5033303;28;20177;-69
2024/01/31 03:00:11;;;;;;;6.80;2.13;;;28.60;99.90;;;;;;5032682;28;20232;-70
2024/01/31 03:02:43;;;;;;;7.47;2.37;;;28.50;99.90;;;;;;5032909;28;20328;-69
2024/01/31 03:05:13;;;;;;;8.97;2.47;;;28.70;99.90;;;;;;5032453;28;20656;-69
2024/01/31 03:07:41;;;;;;;5.73;1.50;;;29.00;99.90;;;;;;5032873;28;20181;-68
2024/01/31 03:10:09;;;;;;;8.03;2.20;;;29.30;99.90;;;;;;5032693;28;20205;-69
2024/01/31 03:12:37;;;;;;;4.30;1.97;;;29.40;99.90;;;;;;5031828;28;20173;-69
2024/01/31 03:15:04;;;;;;;6.33;1.97;;;29.20;99.90;;;;;;5034361;28;20762;-68
2024/01/31 03:17:35;;;;;;;6.83;1.80;;;28.80;99.90;;;;;;5036457;28;20186;-68
2024/01/31 03:20:06;;;;;;;6.03;1.83;;;28.70;99.90;;;;;;5018522;28;20651;-68
2024/01/31 03:22:36;;;;;;;6.50;2.17;;;28.80;99.90;;;;;;5036598;28;20235;-69
2024/01/31 03:25:05;;;;;;;7.55;2.15;;;29.30;99.90;;;;;;5036211;28;20553;-68
2024/01/31 03:27:32;;;;;;;6.20;2.10;;;29.80;99.90;;;;;;5036354;28;20176;-69
2024/01/31 03:33:22;;;;;;;8.25;1.52;;;30.40;99.90;;;;;;5036006;28;20184;-69
2024/01/31 03:35:49;;;;;;;5.43;2.05;;;30.80;99.90;;;;;;5035906;28;20185;-68
2024/01/31 03:38:16;;;;;;;6.63;1.92;;;30.80;99.90;;;;;;5036301;28;20177;-68
2024/01/31 03:40:43;;;;;;;3.03;1.10;;;30.80;99.90;;;;;;5036022;28;20189;-68
2024/01/31 03:43:11;;;;;;;5.20;1.52;;;31.30;99.90;;;;;;5035966;28;20647;-68
2024/01/31 03:45:38;;;;;;;5.68;1.60;;;31.10;99.90;;;;;;5035840;28;20652;-68
2024/01/31 03:48:06;;;;;;;2.57;1.00;;;31.20;99.90;;;;;;5036114;28;20169;-68
2024/01/31 03:50:34;;;;;;;2.97;1.30;;;30.70;99.90;;;;;;5036123;28;20219;-68
2024/01/31 03:53:01;;;;;;;3.80;1.20;;;30.60;99.90;;;;;;5036048;28;20169;-69
2024/01/31 03:55:28;;;;;;;5.60;1.52;;;30.30;99.90;;;;;;5035112;28;20237;-71
2024/01/31 03:57:55;;;;;;;4.03;1.33;;;30.00;99.90;;;;;;5035732;28;20177;-70
2024/01/31 04:00:23;;;;;;;4.78;1.35;;;29.80;99.90;;;;;;5035430;28;20189;-68
2024/01/31 04:02:50;;;;;;;4.87;1.73;;;29.70;99.90;;;;;;5034851;28;20209;-69
2024/01/31 04:05:17;;;;;;;6.00;1.20;;;29.70;99.90;;;;;;5035757;28;20174;-68
2024/01/31 04:07:45;;;;;;;3.43;1.23;;;29.30;99.90;;;;;;5045265;28;20176;-69
2024/01/31 04:10:12;;;;;;;4.45;1.20;;;29.90;99.90;;;;;;5055539;28;20287;-69
2024/01/31 04:12:39;;;;;;;4.40;1.55;;;30.30;99.90;;;;;;5043193;28;20192;-69
2024/01/31 04:15:07;;;;;;;8.07;1.60;;;29.90;99.90;;;;;;5054946;28;20290;-69
2024/01/31 04:17:34;;;;;;;7.90;1.87;;;29.70;99.90;;;;;;5055713;28;20180;-70
2024/01/31 04:20:03;;;;;;;9.70;2.50;;;29.80;99.90;;;;;;5054936;28;20168;-69
2024/01/31 04:22:30;;;;;;;12.90;2.33;;;29.80;99.90;;;;;;5031705;28;20182;-69
2024/01/31 04:24:57;;;;;;;11.13;2.27;;;29.60;99.90;;;;;;5031966;28;20189;-69
2024/01/31 04:27:24;;;;;;;7.43;1.93;;;29.60;99.90;;;;;;5031915;28;20247;-69
2024/01/31 04:29:52;;;;;;;12.03;2.30;;;29.70;99.90;;;;;;5033303;28;20193;-69
2024/01/31 04:32:19;;;;;;;8.73;2.80;;;29.50;99.90;;;;;;5033454;28;20207;-70
2024/01/31 04:34:46;;;;;;;7.97;2.67;;;29.40;99.90;;;;;;5033115;28;20181;-68
2024/01/31 04:37:14;;;;;;;11.90;3.20;;;29.10;99.90;;;;;;5033089;28;20181;-69
2024/01/31 04:39:41;;;;;;;8.80;2.73;;;28.90;99.90;;;;;;5033540;28;20196;-68
2024/01/31 04:42:08;;;;;;;10.20;2.30;;;28.80;99.90;;;;;;5034045;28;20185;-68
2024/01/31 04:44:36;;;;;;;10.13;2.80;;;28.90;99.90;;;;;;5033388;28;20185;-69
2024/01/31 04:47:03;;;;;;;8.27;2.07;;;28.80;99.90;;;;;;5033026;28;20189;-68
2024/01/31 04:49:31;;;;;;;11.83;2.53;;;28.70;99.90;;;;;;5033063;28;20689;-68
2024/01/31 04:51:58;;;;;;;9.67;2.37;;;28.80;99.90;;;;;;5033106;28;20614;-69
2024/01/31 04:54:25;;;;;;;9.93;2.30;;;28.80;99.90;;;;;;5033165;28;20170;-68
2024/01/31 04:56:52;;;;;;;10.57;2.33;;;28.70;99.90;;;;;;5030428;28;20228;-68
2024/01/31 04:59:20;;;;;;;6.43;2.13;;;28.70;99.90;;;;;;5033008;28;20185;-68
2024/01/31 05:01:47;;;;;;;10.80;2.83;;;28.50;99.90;;;;;;5032889;28;20177;-69
2024/01/31 05:04:14;;;;;;;10.40;2.00;;;28.40;99.90;;;;;;5032925;28;20180;-69
2024/01/31 05:06:42;;;;;;;11.90;2.47;;;28.50;99.90;;;;;;5032406;28;20741;-69
2024/01/31 05:09:09;;;;;;;6.37;2.37;;;28.50;99.90;;;;;;5032779;28;20169;-69
2024/01/31 05:11:36;;;;;;;8.70;2.30;;;28.60;99.90;;;;;;5032855;28;20245;-69
2024/01/31 05:14:04;;;;;;;8.53;2.27;;;28.70;99.90;;;;;;5032692;28;20257;-69
2024/01/31 05:16:31;;;;;;;11.80;2.97;;;28.50;99.90;;;;;;5032468;28;20196;-69
2024/01/31 05:18:58;;;;;;;7.30;2.00;;;28.30;99.90;;;;;;5032928;28;20181;-69
2024/01/31 05:21:26;;;;;;;9.03;2.17;;;28.30;99.90;;;;;;5029776;28;20276;-70
2024/01/31 05:23:53;;;;;;;9.63;1.93;;;28.30;99.90;;;;;;5032921;28;20182;-69
2024/01/31 05:26:20;;;;;;;15.70;2.73;;;28.50;99.90;;;;;;5032601;28;20222;-69
2024/01/31 05:28:48;;;;;;;13.83;2.90;;;28.20;99.90;;;;;;5032436;28;20181;-68
2024/01/31 05:31:15;;;;;;;9.60;2.03;;;28.10;99.90;;;;;;5032561;28;20243;-67
2024/01/31 05:33:42;;;;;;;10.83;2.47;;;27.90;99.90;;;;;;5032391;28;20185;-67
2024/01/31 05:36:09;;;;;;;11.30;2.70;;;27.70;99.90;;;;;;5032466;28;20229;-68
2024/01/31 05:38:37;;;;;;;19.97;3.27;;;27.50;99.90;;;;;;5032471;28;20193;-69
2024/01/31 05:41:04;;;;;;;14.67;2.80;;;27.30;99.90;;;;;;5032570;28;20184;-69
2024/01/31 05:43:32;;;;;;;15.77;2.50;;;27.00;99.90;;;;;;5032492;28;20539;-68
2024/01/31 05:45:59;;;;;;;9.73;2.07;;;27.10;99.90;;;;;;5032286;28;20181;-68
2024/01/31 05:48:26;;;;;;;11.17;2.63;;;27.20;99.90;;;;;;5032716;28;20212;-69
2024/01/31 05:50:53;;;;;;;12.63;2.87;;;27.20;99.90;;;;;;5032575;28;20217;-69
2024/01/31 05:53:21;;;;;;;9.53;2.27;;;27.40;99.90;;;;;;5031685;28;20387;-68
2024/01/31 05:55:48;;;;;;;9.00;2.33;;;27.30;99.90;;;;;;5032067;28;20221;-69
2024/01/31 05:58:17;;;;;;;15.87;3.13;;;27.10;99.90;;;;;;5032144;28;20296;-69
2024/01/31 06:00:49;;;;;;;8.77;2.13;;;26.90;99.90;;;;;;5032217;28;20675;-70
2024/01/31 06:03:16;;;;;;;6.73;2.00;;;26.70;99.90;;;;;;5032546;28;20182;-69
2024/01/31 06:05:43;;;;;;;7.47;2.00;;;26.50;99.90;;;;;;5031930;28;20181;-70
2024/01/31 06:08:11;;;;;;;9.83;2.87;;;26.50;99.90;;;;;;5033037;28;20269;-69
2024/01/31 06:10:38;;;;;;;12.50;2.47;;;26.30;99.90;;;;;;5033157;28;20212;-70
2024/01/31 06:13:05;;;;;;;11.33;2.27;;;26.20;99.90;;;;;;5033345;28;20627;-70
2024/01/31 06:15:33;;;;;;;12.70;2.57;;;26.20;99.90;;;;;;5033364;28;20177;-70
2024/01/31 06:18:00;;;;;;;13.97;2.27;;;26.10;99.90;;;;;;5032833;28;20243;-70
2024/01/31 06:20:27;;;;;;;7.37;2.40;;;26.00;99.90;;;;;;5033382;28;20180;-68
2024/01/31 06:22:55;;;;;;;9.93;2.17;;;26.00;99.90;;;;;;5033162;28;20305;-69
2024/01/31 06:25:22;;;;;;;9.20;2.07;;;26.00;99.90;;;;;;5033092;28;20173;-68
2024/01/31 06:27:49;;;;;;;8.63;2.60;;;25.90;99.90;;;;;;5032737;28;20189;-69
2024/01/31 06:30:30;;;;;;;10.57;2.00;;;25.70;99.90;;;;;;5032742;28;20737;-69
2024/01/31 06:33:09;;;;;;;5.30;1.70;;;25.70;99.90;;;;;;5044788;28;20188;-69
2024/01/31 06:35:41;;;;;;;9.33;2.00;;;25.60;99.90;;;;;;5052537;28;20180;-69
2024/01/31 06:38:08;;;;;;;4.90;1.70;;;25.40;99.90;;;;;;5032930;28;20724;-69
2024/01/31 06:40:36;;;;;;;7.87;2.00;;;25.30;99.90;;;;;;5015346;28;20545;-68
2024/01/31 06:43:03;;;;;;;7.03;1.70;;;25.20;99.90;;;;;;5032989;28;20256;-69
2024/01/31 06:45:31;;;;;;;7.83;1.50;;;25.20;99.90;;;;;;5033134;28;20185;-69
2024/01/31 06:47:58;;;;;;;6.30;2.07;;;25.00;99.90;;;;;;5034325;28;20544;-69
2024/01/31 06:50:26;;;;;;;5.53;1.53;;;25.00;99.90;;;;;;5055109;28;20231;-69
2024/01/31 06:52:53;;;;;;;7.10;1.67;;;25.00;99.90;;;;;;5057024;28;20230;-70
2024/01/31 06:55:20;;;;;;;4.50;1.97;;;25.00;99.90;;;;;;5056691;28;20303;-70
2024/01/31 06:57:48;;;;;;;5.03;1.50;;;25.20;99.90;;;;;;5056916;28;20173;-70
2024/01/31 07:00:15;;;;;;;7.87;1.70;;;25.20;99.90;;;;;;5056326;28;20195;-70
2024/01/31 07:02:43;;;;;;;7.57;1.53;;;25.30;99.90;;;;;;5056635;28;20176;-69
2024/01/31 07:05:10;;;;;;;7.63;1.73;;;25.20;99.90;;;;;;5056840;28;20176;-70
2024/01/31 07:07:37;;;;;;;10.53;1.77;;;25.30;99.90;;;;;;5057061;28;20176;-70
2024/01/31 07:10:05;;;;;;;5.43;1.50;;;25.30;99.90;;;;;;5056602;28;20196;-70
2024/01/31 07:12:32;;;;;;;9.07;2.10;;;25.40;99.90;;;;;;5056748;28;20203;-70
2024/01/31 07:15:00;;;;;;;6.77;2.93;;;25.40;99.90;;;;;;5056542;28;20260;-70
2024/01/31 07:17:27;;;;;;;8.10;2.20;;;25.40;99.90;;;;;;5056574;28;20177;-68
2024/01/31 07:19:54;;;;;;;10.67;2.30;;;25.40;99.90;;;;;;5041126;28;20188;-70
2024/01/31 07:22:22;;;;;;;10.97;2.83;;;25.40;99.90;;;;;;5012254;28;20173;-70
2024/01/31 07:24:49;;;;;;;11.63;2.30;;;25.20;99.90;;;;;;5034648;28;20181;-69
2024/01/31 07:27:16;;;;;;;10.20;2.27;;;25.00;99.90;;;;;;5034727;28;20169;-70
2024/01/31 07:29:47;;;;;;;8.33;2.60;;;25.00;99.90;;;;;;5033942;28;20182;-69
2024/01/31 07:32:14;;;;;;;11.67;2.40;;;25.00;99.90;;;;;;5017080;28;20550;-70
2024/01/31 07:34:41;;;;;;;18.53;2.73;;;24.90;99.90;;;;;;5034228;28;20213;-70
2024/01/31 07:37:09;;;;;;;10.53;2.20;;;24.80;99.90;;;;;;5034751;28;20165;-69
2024/01/31 07:39:36;;;;;;;8.33;2.30;;;24.80;99.90;;;;;;5034303;28;20202;-69
2024/01/31 07:42:04;;;;;;;14.13;2.60;;;24.70;99.90;;;;;;5034604;28;20303;-69
2024/01/31 07:44:31;;;;;;;12.90;2.73;;;24.70;99.90;;;;;;5034668;28;20177;-68
2024/01/31 07:47:02;;;;;;;17.23;3.00;;;24.70;99.90;;;;;;5034504;28;20591;-68
2024/01/31 07:49:31;;;;;;;10.90;2.10;;;24.70;99.90;;;;;;5034205;28;20323;-69
2024/01/31 07:51:58;;;;;;;13.07;2.67;;;24.70;99.90;;;;;;5034307;28;20224;-69
2024/01/31 07:54:25;;;;;;;12.83;2.67;;;24.70;99.90;;;;;;5033917;28;20234;-69
2024/01/31 07:56:52;;;;;;;11.73;2.20;;;24.60;99.90;;;;;;5033921;28;20229;-68
2024/01/31 07:59:20;;;;;;;12.57;2.57;;;24.60;99.90;;;;;;5033886;28;20398;-70
2024/01/31 08:01:47;;;;;;;13.10;2.60;;;24.60;99.90;;;;;;5034314;28;20187;-69
2024/01/31 08:04:15;;;;;;;11.07;2.07;;;24.60;99.90;;;;;;5034461;28;20511;-69
2024/01/31 08:06:45;;;;;;;11.40;2.70;;;24.60;99.90;;;;;;5034165;28;20193;-69
2024/01/31 08:09:12;;;;;;;19.43;3.70;;;24.60;99.90;;;;;;5033785;28;20220;-70
2024/01/31 08:11:43;;;;;;;14.30;3.13;;;24.50;99.90;;;;;;5034123;28;20225;-70
2024/01/31 08:14:11;;;;;;;12.67;2.30;;;24.50;99.90;;;;;;5034245;28;20323;-71
2024/01/31 08:16:39;;;;;;;12.13;3.23;;;24.50;99.90;;;;;;5033584;28;20664;-71
2024/01/31 08:19:06;;;;;;;10.43;2.43;;;24.40;99.90;;;;;;5033715;28;20181;-70
2024/01/31 08:21:33;;;;;;;13.13;2.93;;;24.40;99.90;;;;;;5033950;28;20185;-71
2024/01/31 08:24:01;;;;;;;14.37;2.40;;;24.30;99.90;;;;;;5034102;28;20215;-70
2024/01/31 08:26:28;;;;;;;11.33;2.23;;;24.10;99.90;;;;;;5033968;28;20181;-70
2024/01/31 08:28:55;;;;;;;11.20;2.47;;;24.10;99.90;;;;;;5033665;28;20231;-70
2024/01/31 08:31:23;;;;;;;15.10;2.67;;;24.10;99.90;;;;;;5033722;28;20797;-70
2024/01/31 08:33:50;;;;;;;9.67;2.10;;;24.10;99.90;;;;;;5033145;28;20859;-69
2024/01/31 08:36:17;;;;;;;7.27;1.80;;;24.10;99.90;;;;;;5033739;28;20279;-70
2024/01/31 08:38:44;;;;;;;12.90;2.30;;;24.10;99.90;;;;;;5033717;28;20177;-70
2024/01/31 08:41:15;;;;;;;11.83;2.30;;;24.10;99.90;;;;;;5033476;28;20174;-70
2024/01/31 08:43:42;;;;;;;8.07;2.37;;;23.90;99.90;;;;;;5033334;28;20530;-69
2024/01/31 08:46:09;;;;;;;7.33;1.73;;;23.90;99.90;;;;;;5033543;28;20209;-70
2024/01/31 08:48:38;;;;;;;11.67;2.10;;;23.90;99.90;;;;;;5015478;28;20687;-70
2024/01/31 08:51:07;;;;;;;8.90;3.00;;;23.80;99.90;;;;;;5033125;28;20572;-70
2024/01/31 08:53:35;;;;;;;11.43;2.47;;;23.80;99.90;;;;;;5033018;28;20714;-70
2024/01/31 08:56:02;;;;;;;11.57;2.27;;;23.70;99.90;;;;;;5033452;28;20650;-70
2024/01/31 08:58:29;;;;;;;11.77;2.30;;;23.60;99.90;;;;;;5034412;28;20211;-70
2024/01/31 09:00:56;;;;;;;7.33;2.00;;;23.70;99.90;;;;;;5033980;28;20259;-70
2024/01/31 09:03:24;;;;;;;9.60;2.10;;;23.60;99.90;;;;;;5034923;28;20173;-70
2024/01/31 09:05:51;;;;;;;9.17;2.30;;;23.70;99.90;;;;;;5034419;28;20191;-70
2024/01/31 09:08:18;;;;;;;6.07;2.07;;;23.60;99.90;;;;;;5034558;28;21331;-70
2024/01/31 09:10:46;;;;;;;8.17;2.00;;;23.50;99.90;;;;;;5034279;28;20201;-70
2024/01/31 09:13:13;;;;;;;5.53;1.23;;;23.50;99.90;;;;;;5033875;28;20268;-70
2024/01/31 09:15:40;;;;;;;5.77;1.40;;;23.50;99.90;;;;;;5034033;28;20292;-70
2024/01/31 09:18:08;;;;;;;3.97;1.23;;;23.40;99.90;;;;;;5034125;28;20663;-70
2024/01/31 09:20:35;;;;;;;6.47;1.33;;;23.40;99.90;;;;;;5016656;28;20548;-70
2024/01/31 09:23:03;;;;;;;4.97;1.40;;;23.40;99.90;;;;;;5033932;28;20191;-70
2024/01/31 09:25:30;;;;;;;7.07;1.60;;;23.50;99.90;;;;;;5034286;28;20169;-70
2024/01/31 09:27:58;;;;;;;6.80;1.67;;;23.50;99.90;;;;;;5034165;28;20185;-70
2024/01/31 09:30:25;;;;;;;5.17;1.37;;;23.50;99.90;;;;;;5033241;28;20205;-70
2024/01/31 09:32:52;;;;;;;8.57;1.70;;;23.60;99.90;;;;;;5034113;28;20193;-70
2024/01/31 09:35:19;;;;;;;9.03;2.00;;;23.50;99.90;;;;;;5034057;28;20600;-70
2024/01/31 09:37:47;;;;;;;7.17;1.40;;;23.40;99.90;;;;;;5033763;28;20540;-70
2024/01/31 09:40:15;;;;;;;6.33;1.63;;;23.30;99.90;;;;;;5033836;28;20231;-70
2024/01/31 09:42:45;;;;;;;8.27;2.10;;;23.30;99.90;;;;;;5033527;28;20190;-70
2024/01/31 09:45:14;;;;;;;7.73;1.93;;;23.20;99.90;;;;;;5033211;28;20180;-70
2024/01/31 09:47:46;;;;;;;6.37;1.87;;;23.30;99.90;;;;;;5033629;28;20181;-70
2024/01/31 09:50:13;;;;;;;9.23;2.10;;;23.20;99.90;;;;;;5034012;28;20205;-70
2024/01/31 09:52:41;;;;;;;6.37;1.50;;;23.20;99.90;;;;;;5034052;28;20173;-70
2024/01/31 09:55:12;;;;;;;6.30;1.93;;;23.20;99.90;;;;;;5011526;28;20940;-71
2024/01/31 09:57:42;;;;;;;5.20;2.00;;;23.10;99.90;;;;;;5031478;28;20196;-70
2024/01/31 10:00:09;;;;;;;9.40;2.23;;;23.10;99.90;;;;;;5031514;28;20258;-71
2024/01/31 10:02:38;;;;;;;3.80;1.47;;;23.20;99.90;;;;;;5032138;28;20735;-71
2024/01/31 10:05:06;;;;;;;8.57;2.03;;;23.20;99.90;;;;;;5033056;28;20211;-70
2024/01/31 10:07:38;;;;;;;10.93;2.40;;;23.10;99.90;;;;;;5033597;28;20173;-71
2024/01/31 10:10:06;;;;;;;9.90;2.40;;;23.10;99.90;;;;;;5032907;28;20217;-71
2024/01/31 10:12:33;;;;;;;7.97;2.77;;;23.20;99.90;;;;;;5033166;28;20184;-70
2024/01/31 10:15:00;;;;;;;11.77;2.27;;;23.20;99.90;;;;;;5033490;28;20178;-71
2024/01/31 10:17:28;;;;;;;7.97;1.80;;;23.20;99.90;;;;;;5033532;28;20181;-71
2024/01/31 10:19:55;;;;;;;11.13;2.23;;;23.20;99.90;;;;;;5032909;28;20266;-70
2024/01/31 10:22:24;;;;;;;10.13;2.40;;;23.20;99.90;;;;;;5015542;28;20199;-71
2024/01/31 10:24:51;;;;;;;11.73;2.67;;;23.20;99.90;;;;;;5032529;28;20178;-70
2024/01/31 10:27:21;;;;;;;11.00;2.70;;;23.10;99.90;;;;;;5033214;28;20216;-70
2024/01/31 10:29:49;;;;;;;7.47;2.20;;;23.20;99.90;;;;;;5032889;28;20188;-71
2024/01/31 10:32:17;;;;;;;6.73;2.70;;;23.20;99.90;;;;;;5033175;28;20534;-71
2024/01/31 10:34:45;;;;;;;10.33;2.40;;;23.20;99.90;;;;;;5033168;28;20559;-71
2024/01/31 10:37:14;;;;;;;11.30;2.53;;;23.10;99.90;;;;;;5033226;28;20177;-70
2024/01/31 10:39:43;;;;;;;19.93;2.77;;;23.20;99.90;;;;;;5032897;28;20612;-70
2024/01/31 10:42:12;;;;;;;10.47;3.03;;;23.20;99.90;;;;;;5033364;28;20181;-71
2024/01/31 10:44:40;;;;;;;14.83;3.07;;;23.20;99.90;;;;;;5033041;28;20184;-70
2024/01/31 10:47:08;;;;;;;15.53;3.30;;;23.20;99.90;;;;;;5033503;28;20196;-70
2024/01/31 10:49:36;;;;;;;12.00;2.60;;;23.10;99.90;;;;;;5032709;28;20196;-70
2024/01/31 10:52:07;;;;;;;13.30;3.03;;;23.20;99.90;;;;;;5032768;28;20231;-71
2024/01/31 10:54:38;;;;;;;14.93;2.53;;;23.10;99.90;;;;;;5032678;28;20523;-70
2024/01/31 10:57:08;;;;;;;13.97;2.30;;;23.10;99.90;;;;;;5032900;28;20233;-70
2024/01/31 10:59:39;;;;;;;7.30;2.53;;;23.10;99.90;;;;;;5032188;28;20189;-70
2024/01/31 11:02:16;;;;;;;15.20;3.00;;;23.10;99.90;;;;;;5032411;28;20534;-71
2024/01/31 11:04:44;;;;;;;10.80;2.47;;;23.20;99.90;;;;;;5033176;28;20221;-70
2024/01/31 11:07:21;;;;;;;14.33;2.30;;;23.20;99.90;;;;;;5032883;28;20276;-70
2024/01/31 11:09:49;;;;;;;15.27;2.67;;;23.10;99.90;;;;;;5032061;28;20188;-70
2024/01/31 11:12:17;;;;;;;13.33;3.03;;;23.10;99.90;;;;;;5032826;28;20260;-71
2024/01/31 11:14:47;;;;;;;13.73;2.60;;;23.10;99.90;;;;;;5032900;28;20177;-70
2024/01/31 11:17:26;;;;;;;15.17;3.30;;;23.10;99.90;;;;;;5032858;28;20188;-70
2024/01/31 11:19:59;;;;;;;13.73;2.20;;;23.00;99.90;;;;;;5032519;28;20181;-70
2024/01/31 11:22:27;;;;;;;10.83;2.93;;;23.00;99.90;;;;;;5032202;28;20213;-70
2024/01/31 11:24:58;;;;;;;14.10;2.70;;;23.00;99.90;;;;;;5032909;28;20178;-70
2024/01/31 11:27:26;;;;;;;14.33;2.60;;;23.00;99.90;;;;;;5032575;28;20238;-70
2024/01/31 11:29:54;;;;;;;13.40;2.60;;;23.00;99.90;;;;;;5032317;28;20186;-70
2024/01/31 11:32:23;;;;;;;15.50;2.40;;;23.00;99.90;;;;;;5032465;28;20276;-70
2024/01/31 11:35:05;;;;;;;13.60;2.80;;;23.00;99.90;;;;;;5032618;28;20177;-71
2024/01/31 11:37:33;;;;;;;10.60;3.00;;;23.00;99.90;;;;;;5036670;28;20174;-70
2024/01/31 11:40:01;;;;;;;12.13;2.57;;;23.00;99.90;;;;;;5035704;28;20663;-70
2024/01/31 11:42:29;;;;;;;18.63;2.90;;;23.00;99.90;;;;;;5036627;28;20248;-70
2024/01/31 11:44:56;;;;;;;14.23;2.87;;;23.00;99.90;;;;;;5036149;28;20678;-70
2024/01/31 11:47:24;;;;;;;12.00;2.70;;;23.00;99.90;;;;;;5036317;28;20184;-70
2024/01/31 11:49:52;;;;;;;18.97;3.23;;;23.00;99.90;;;;;;5035669;28;20648;-70
2024/01/31 11:52:19;;;;;;;20.53;3.30;;;23.00;99.90;;;;;;5036190;28;20276;-70
2024/01/31 11:54:47;;;;;;;11.40;3.23;;;23.00;99.90;;;;;;5036143;28;20219;-70
2024/01/31 11:57:15;;;;;;;8.57;2.87;;;23.00;99.90;;;;;;5035847;28;20226;-70
2024/01/31 11:59:43;;;;;;;8.33;2.37;;;22.90;99.90;;;;;;5035556;28;20315;-70
2024/01/31 12:02:11;;;;;;;8.33;2.83;;;22.90;99.90;;;;;;5035839;28;20193;-70
2024/01/31 12:04:39;;;;;;;10.53;2.83;;;22.90;99.90;;;;;;5035636;28;20193;-70
2024/01/31 12:07:07;;;;;;;10.80;2.60;;;22.90;99.90;;;;;;5036037;28;20216;-70
2024/01/31 12:09:35;;;;;;;13.00;3.20;;;22.90;99.90;;;;;;5035533;28;20189;-70
2024/01/31 12:12:03;;;;;;;13.77;3.73;;;22.90;99.90;;;;;;5035408;28;20270;-71
2024/01/31 12:14:30;;;;;;;9.73;2.30;;;22.90;99.90;;;;;;5035740;28;20548;-70
2024/01/31 12:16:58;;;;;;;13.33;2.93;;;22.80;99.90;;;;;;5035239;28;20177;-70
2024/01/31 12:19:29;;;;;;;9.73;3.40;;;22.80;99.90;;;;;;5035094;28;20204;-70
2024/01/31 12:21:57;;;;;;;9.20;3.23;;;22.90;99.90;;;;;;5035669;28;20225;-70
2024/01/31 12:24:25;;;;;;;9.17;2.97;;;22.90;99.90;;;;;;5035666;28;20181;-71
2024/01/31 12:26:54;;;;;;;9.53;2.97;;;22.70;99.90;;;;;;5035785;28;20205;-70
2024/01/31 12:29:22;;;;;;;6.93;3.20;;;22.80;99.90;;;;;;5035197;28;20188;-70
2024/01/31 12:31:50;;;;;;;11.33;2.57;;;22.80;99.90;;;;;;5035198;28;20690;-70
2024/01/31 12:34:17;;;;;;;12.20;2.97;;;22.70;99.90;;;;;;5035396;28;20189;-70
2024/01/31 12:36:45;;;;;;;10.03;2.60;;;22.70;99.90;;;;;;5035466;28;20196;-70
2024/01/31 12:39:22;;;;;;;8.67;2.70;;;22.70;99.90;;;;;;5035068;28;20188;-70
2024/01/31 12:41:52;;;;;;;13.17;3.77;;;22.70;99.90;;;;;;5035264;28;20248;-70
2024/01/31 12:44:19;;;;;;;8.37;2.67;;;22.70;99.90;;;;;;5035091;28;20328;-70
2024/01/31 12:46:47;;;;;;;16.60;2.90;;;22.60;99.90;;;;;;5034723;28;20169;-70
2024/01/31 12:49:15;;;;;;;7.53;2.30;;;22.60;99.90;;;;;;5034167;28;20269;-70
2024/01/31 12:51:43;;;;;;;10.10;2.73;;;22.60;99.90;;;;;;5034965;28;20577;-70
2024/01/31 12:54:10;;;;;;;6.70;2.67;;;22.60;99.90;;;;;;5017140;28;20579;-70
2024/01/31 12:56:40;;;;;;;9.40;2.73;;;22.60;99.90;;;;;;5034543;28;20687;-70
2024/01/31 12:59:07;;;;;;;8.07;2.77;;;22.60;99.90;;;;;;5034361;28;20181;-70
2024/01/31 13:01:35;;;;;;;10.13;2.80;;;22.60;99.90;;;;;;5031901;28;20285;-70
2024/01/31 13:04:03;;;;;;;10.87;2.87;;;22.60;99.90;;;;;;5034803;28;20583;-70
2024/01/31 13:06:31;;;;;;;13.53;3.20;;;22.60;99.90;;;;;;5034505;28;20543;-69